sensor_id;sensor_type;location;lat;lon;timestamp;pressure;altitude;pressure_sealevel;temperature;humidity
11621;BME280;5866;49.094;11.900;2023-06-14T00:01:40;95809.31;;;15.50;64.36
11621;BME280;5866;49.094;11.900;2023-06-14T00:04:07;95808.22;;;15.38;66.32
11621;BME280;5866;49.094;11.900;2023-06-14T00:06:35;95811.69;;;15.32;67.16
11621;BME280;5866;49.094;11.900;2023-06-14T00:09:04;95813.41;;;15.46;66.54
11621;BME280;5866;49.094;11.900;2023-06-14T00:11:34;95805.84;;;15.69;65.16
11621;BME280;5866;49.094;11.900;2023-06-14T00:14:02;95800.72;;;15.74;63.96
11621;BME280;5866;49.094;11.900;2023-06-14T00:16:31;95799.88;;;15.67;64.41
11621;BME280;5866;49.094;11.900;2023-06-14T00:18:59;95803.50;;;15.33;65.97
11621;BME280;5866;49.094;11.900;2023-06-14T00:21:29;95810.06;;;14.83;70.72
11621;BME280;5866;49.094;11.900;2023-06-14T00:23:58;95811.06;;;15.30;67.67
11621;BME280;5866;49.094;11.900;2023-06-14T00:26:26;95803.94;;;14.96;69.52
11621;BME280;5866;49.094;11.900;2023-06-14T00:28:54;95807.03;;;15.47;66.91
11621;BME280;5866;49.094;11.900;2023-06-14T00:31:23;95811.13;;;15.43;66.58
11621;BME280;5866;49.094;11.900;2023-06-14T00:33:52;95803.28;;;15.35;66.86
11621;BME280;5866;49.094;11.900;2023-06-14T00:36:19;95804.72;;;15.37;66.77
11621;BME280;5866;49.094;11.900;2023-06-14T00:38:47;95805.34;;;15.33;67.54
11621;BME280;5866;49.094;11.900;2023-06-14T00:41:14;95800.81;;;15.40;67.19
11621;BME280;5866;49.094;11.900;2023-06-14T00:43:42;95809.84;;;15.32;67.43
11621;BME280;5866;49.094;11.900;2023-06-14T00:46:09;95805.66;;;15.17;68.52
11621;BME280;5866;49.094;11.900;2023-06-14T00:48:38;95802.50;;;14.93;70.27
11621;BME280;5866;49.094;11.900;2023-06-14T00:51:08;95798.94;;;14.73;72.18
11621;BME280;5866;49.094;11.900;2023-06-14T00:53:35;95788.72;;;14.90;71.48
11621;BME280;5866;49.094;11.900;2023-06-14T00:56:05;95794.09;;;14.96;71.15
11621;BME280;5866;49.094;11.900;2023-06-14T00:58:33;95803.97;;;15.02;70.26
11621;BME280;5866;49.094;11.900;2023-06-14T01:01:01;95793.25;;;14.21;77.18
11621;BME280;5866;49.094;11.900;2023-06-14T01:03:29;95793.81;;;14.16;77.96
11621;BME280;5866;49.094;11.900;2023-06-14T01:06:05;95790.72;;;14.13;79.89
11621;BME280;5866;49.094;11.900;2023-06-14T01:08:45;95793.50;;;14.60;75.59
11621;BME280;5866;49.094;11.900;2023-06-14T01:11:20;95796.91;;;14.82;72.99
11621;BME280;5866;49.094;11.900;2023-06-14T01:13:51;95798.25;;;14.65;73.29
11621;BME280;5866;49.094;11.900;2023-06-14T01:16:19;95798.38;;;14.50;74.98
11621;BME280;5866;49.094;11.900;2023-06-14T01:18:47;95794.31;;;14.54;74.48
11621;BME280;5866;49.094;11.900;2023-06-14T01:21:22;95799.63;;;14.54;73.82
11621;BME280;5866;49.094;11.900;2023-06-14T01:23:52;95801.69;;;13.97;79.71
11621;BME280;5866;49.094;11.900;2023-06-14T01:26:21;95797.91;;;14.40;75.49
11621;BME280;5866;49.094;11.900;2023-06-14T01:28:49;95802.84;;;14.37;75.85
11621;BME280;5866;49.094;11.900;2023-06-14T01:31:21;95802.03;;;14.15;76.70
11621;BME280;5866;49.094;11.900;2023-06-14T01:33:49;95790.78;;;14.19;76.79
11621;BME280;5866;49.094;11.900;2023-06-14T01:36:18;95800.31;;;13.80;79.54
11621;BME280;5866;49.094;11.900;2023-06-14T01:38:47;95806.13;;;13.90;79.98
11621;BME280;5866;49.094;11.900;2023-06-14T01:41:18;95799.50;;;14.07;78.69
11621;BME280;5866;49.094;11.900;2023-06-14T01:43:48;95791.97;;;14.17;77.23
11621;BME280;5866;49.094;11.900;2023-06-14T01:46:17;95793.91;;;14.02;78.29
11621;BME280;5866;49.094;11.900;2023-06-14T01:48:46;95793.97;;;14.08;77.33
11621;BME280;5866;49.094;11.900;2023-06-14T01:51:14;95784.13;;;14.09;77.15
11621;BME280;5866;49.094;11.900;2023-06-14T01:53:41;95786.69;;;13.96;77.19
11621;BME280;5866;49.094;11.900;2023-06-14T01:56:09;95793.44;;;13.92;78.94
11621;BME280;5866;49.094;11.900;2023-06-14T01:58:38;95788.03;;;13.85;79.51
11621;BME280;5866;49.094;11.900;2023-06-14T02:01:05;95782.63;;;14.00;78.47
11621;BME280;5866;49.094;11.900;2023-06-14T02:03:33;95798.97;;;13.69;81.61
11621;BME280;5866;49.094;11.900;2023-06-14T02:06:04;95797.38;;;13.75;80.84
11621;BME280;5866;49.094;11.900;2023-06-14T02:08:32;95784.53;;;13.57;80.90
11621;BME280;5866;49.094;11.900;2023-06-14T02:10:59;95795.13;;;13.50;82.89
11621;BME280;5866;49.094;11.900;2023-06-14T02:13:27;95802.63;;;12.90;89.58
11621;BME280;5866;49.094;11.900;2023-06-14T02:15:57;95802.19;;;12.72;95.56
11621;BME280;5866;49.094;11.900;2023-06-14T02:18:26;95799.59;;;12.78;94.32
11621;BME280;5866;49.094;11.900;2023-06-14T02:20:54;95793.13;;;13.17;89.46
11621;BME280;5866;49.094;11.900;2023-06-14T02:23:21;95800.94;;;13.04;91.62
11621;BME280;5866;49.094;11.900;2023-06-14T02:25:49;95799.56;;;13.43;86.10
11621;BME280;5866;49.094;11.900;2023-06-14T02:28:17;95806.69;;;13.22;87.58
11621;BME280;5866;49.094;11.900;2023-06-14T02:30:44;95798.56;;;13.44;85.38
11621;BME280;5866;49.094;11.900;2023-06-14T02:33:13;95799.91;;;13.62;83.84
11621;BME280;5866;49.094;11.900;2023-06-14T02:35:41;95801.78;;;13.82;80.23
11621;BME280;5866;49.094;11.900;2023-06-14T02:38:09;95805.16;;;13.48;83.12
11621;BME280;5866;49.094;11.900;2023-06-14T02:40:36;95803.34;;;13.55;83.08
11621;BME280;5866;49.094;11.900;2023-06-14T02:43:04;95800.56;;;13.64;81.55
11621;BME280;5866;49.094;11.900;2023-06-14T02:45:31;95796.81;;;13.58;80.86
11621;BME280;5866;49.094;11.900;2023-06-14T02:47:59;95809.44;;;13.49;81.88
11621;BME280;5866;49.094;11.900;2023-06-14T02:50:27;95799.13;;;13.40;82.84
11621;BME280;5866;49.094;11.900;2023-06-14T02:52:56;95796.47;;;13.61;80.75
11621;BME280;5866;49.094;11.900;2023-06-14T02:55:24;95799.09;;;13.19;84.75
11621;BME280;5866;49.094;11.900;2023-06-14T02:57:52;95799.94;;;13.40;82.99
11621;BME280;5866;49.094;11.900;2023-06-14T03:00:20;95794.22;;;13.43;82.18
11621;BME280;5866;49.094;11.900;2023-06-14T03:02:48;95803.25;;;12.92;87.28
11621;BME280;5866;49.094;11.900;2023-06-14T03:05:18;95811.50;;;13.12;87.28
11621;BME280;5866;49.094;11.900;2023-06-14T03:07:49;95800.97;;;12.89;89.95
11621;BME280;5866;49.094;11.900;2023-06-14T03:10:17;95805.44;;;13.03;89.52
11621;BME280;5866;49.094;11.900;2023-06-14T03:12:44;95802.63;;;12.90;90.45
11621;BME280;5866;49.094;11.900;2023-06-14T03:15:12;95803.47;;;12.61;95.24
11621;BME280;5866;49.094;11.900;2023-06-14T03:17:40;95806.41;;;12.66;95.22
11621;BME280;5866;49.094;11.900;2023-06-14T03:20:12;95803.31;;;13.13;90.69
11621;BME280;5866;49.094;11.900;2023-06-14T03:22:40;95811.34;;;13.34;87.37
11621;BME280;5866;49.094;11.900;2023-06-14T03:25:09;95809.97;;;12.88;92.63
11621;BME280;5866;49.094;11.900;2023-06-14T03:27:36;95828.44;;;12.46;97.70
11621;BME280;5866;49.094;11.900;2023-06-14T03:30:05;95821.44;;;12.74;96.24
11621;BME280;5866;49.094;11.900;2023-06-14T03:32:34;95827.22;;;12.34;100.00
11621;BME280;5866;49.094;11.900;2023-06-14T03:35:01;95827.06;;;12.21;100.00
11621;BME280;5866;49.094;11.900;2023-06-14T03:37:29;95830.91;;;12.47;100.00
11621;BME280;5866;49.094;11.900;2023-06-14T03:39:57;95822.16;;;12.97;95.33
11621;BME280;5866;49.094;11.900;2023-06-14T03:42:26;95832.44;;;13.50;88.77
11621;BME280;5866;49.094;11.900;2023-06-14T03:44:54;95837.50;;;13.67;87.45
11621;BME280;5866;49.094;11.900;2023-06-14T03:47:21;95831.66;;;13.78;87.48
11621;BME280;5866;49.094;11.900;2023-06-14T03:49:49;95827.22;;;14.12;82.49
11621;BME280;5866;49.094;11.900;2023-06-14T03:52:17;95825.59;;;14.11;84.21
11621;BME280;5866;49.094;11.900;2023-06-14T03:54:44;95824.19;;;14.15;81.53
11621;BME280;5866;49.094;11.900;2023-06-14T03:57:15;95835.09;;;13.50;88.42
11621;BME280;5866;49.094;11.900;2023-06-14T03:59:44;95837.50;;;13.67;88.40
11621;BME280;5866;49.094;11.900;2023-06-14T04:02:12;95831.84;;;13.76;86.01
11621;BME280;5866;49.094;11.900;2023-06-14T04:04:41;95835.75;;;14.50;82.03
11621;BME280;5866;49.094;11.900;2023-06-14T04:07:10;95841.06;;;15.32;74.20
11621;BME280;5866;49.094;11.900;2023-06-14T04:09:38;95841.72;;;14.86;74.63
11621;BME280;5866;49.094;11.900;2023-06-14T04:12:06;95840.28;;;14.56;77.92
11621;BME280;5866;49.094;11.900;2023-06-14T04:14:35;95834.00;;;14.36;80.83
11621;BME280;5866;49.094;11.900;2023-06-14T04:17:04;95851.13;;;13.99;81.04
11621;BME280;5866;49.094;11.900;2023-06-14T04:19:32;95844.34;;;13.97;83.49
11621;BME280;5866;49.094;11.900;2023-06-14T04:22:00;95850.44;;;13.91;83.58
11621;BME280;5866;49.094;11.900;2023-06-14T04:24:28;95855.16;;;14.16;82.99
11621;BME280;5866;49.094;11.900;2023-06-14T04:26:59;95854.22;;;14.24;83.85
11621;BME280;5866;49.094;11.900;2023-06-14T04:29:27;95848.00;;;14.17;83.78
11621;BME280;5866;49.094;11.900;2023-06-14T04:31:55;95858.03;;;14.64;81.68
11621;BME280;5866;49.094;11.900;2023-06-14T04:34:27;95861.59;;;14.43;81.41
11621;BME280;5866;49.094;11.900;2023-06-14T04:36:56;95864.16;;;14.64;82.18
11621;BME280;5866;49.094;11.900;2023-06-14T04:39:25;95855.00;;;14.73;79.28
11621;BME280;5866;49.094;11.900;2023-06-14T04:41:53;95853.44;;;14.51;81.68
11621;BME280;5866;49.094;11.900;2023-06-14T04:44:23;95861.97;;;14.40;82.00
11621;BME280;5866;49.094;11.900;2023-06-14T04:46:56;95865.78;;;14.31;85.37
11621;BME280;5866;49.094;11.900;2023-06-14T04:49:26;95865.84;;;14.38;84.33
11621;BME280;5866;49.094;11.900;2023-06-14T04:51:56;95855.41;;;14.70;83.20
11621;BME280;5866;49.094;11.900;2023-06-14T04:54:25;95863.00;;;14.73;81.05
11621;BME280;5866;49.094;11.900;2023-06-14T04:56:53;95874.56;;;14.80;80.69
11621;BME280;5866;49.094;11.900;2023-06-14T04:59:21;95860.56;;;14.78;81.04
11621;BME280;5866;49.094;11.900;2023-06-14T05:01:50;95867.91;;;15.10;79.14
11621;BME280;5866;49.094;11.900;2023-06-14T05:04:20;95869.72;;;14.35;82.63
11621;BME280;5866;49.094;11.900;2023-06-14T05:06:49;95868.84;;;14.56;84.67
11621;BME280;5866;49.094;11.900;2023-06-14T05:09:16;95869.47;;;15.33;78.11
11621;BME280;5866;49.094;11.900;2023-06-14T05:11:44;95866.13;;;15.24;78.18
11621;BME280;5866;49.094;11.900;2023-06-14T05:14:12;95871.13;;;14.59;80.98
11621;BME280;5866;49.094;11.900;2023-06-14T05:16:39;95872.72;;;14.53;84.09
11621;BME280;5866;49.094;11.900;2023-06-14T05:19:07;95872.78;;;14.32;84.29
11621;BME280;5866;49.094;11.900;2023-06-14T05:21:35;95872.84;;;14.73;82.50
11621;BME280;5866;49.094;11.900;2023-06-14T05:24:10;95882.94;;;15.11;79.67
11621;BME280;5866;49.094;11.900;2023-06-14T05:26:38;95874.91;;;15.59;74.68
11621;BME280;5866;49.094;11.900;2023-06-14T05:29:05;95877.38;;;15.54;75.91
11621;BME280;5866;49.094;11.900;2023-06-14T05:31:33;95870.91;;;16.81;68.48
11621;BME280;5866;49.094;11.900;2023-06-14T05:34:01;95879.03;;;17.25;64.51
11621;BME280;5866;49.094;11.900;2023-06-14T05:36:28;95881.81;;;17.94;61.79
11621;BME280;5866;49.094;11.900;2023-06-14T05:38:56;95882.66;;;17.43;61.56
11621;BME280;5866;49.094;11.900;2023-06-14T05:41:27;95890.59;;;17.19;63.28
11621;BME280;5866;49.094;11.900;2023-06-14T05:43:55;95890.66;;;16.93;65.86
11621;BME280;5866;49.094;11.900;2023-06-14T05:46:23;95887.47;;;17.79;62.08
11621;BME280;5866;49.094;11.900;2023-06-14T05:48:52;95899.84;;;18.74;58.43
11621;BME280;5866;49.094;11.900;2023-06-14T05:51:20;95889.94;;;18.92;56.64
11621;BME280;5866;49.094;11.900;2023-06-14T05:53:48;95896.31;;;19.89;54.38
11621;BME280;5866;49.094;11.900;2023-06-14T05:56:17;95894.28;;;19.84;53.20
11621;BME280;5866;49.094;11.900;2023-06-14T05:58:46;95896.38;;;20.00;52.58
11621;BME280;5866;49.094;11.900;2023-06-14T06:01:14;95893.38;;;20.38;52.41
11621;BME280;5866;49.094;11.900;2023-06-14T06:03:42;95896.25;;;21.12;51.61
11621;BME280;5866;49.094;11.900;2023-06-14T06:06:12;95900.22;;;20.98;50.63
11621;BME280;5866;49.094;11.900;2023-06-14T06:08:40;95891.41;;;21.38;49.07
11621;BME280;5866;49.094;11.900;2023-06-14T06:11:08;95897.91;;;21.13;49.12
11621;BME280;5866;49.094;11.900;2023-06-14T06:13:35;95902.34;;;19.36;53.30
11621;BME280;5866;49.094;11.900;2023-06-14T06:16:05;95904.28;;;17.99;57.75
11621;BME280;5866;49.094;11.900;2023-06-14T06:18:32;95908.59;;;17.69;60.42
11621;BME280;5866;49.094;11.900;2023-06-14T06:21:00;95907.41;;;18.59;59.44
11621;BME280;5866;49.094;11.900;2023-06-14T06:23:29;95905.59;;;19.20;56.53
11621;BME280;5866;49.094;11.900;2023-06-14T06:25:57;95912.13;;;18.88;57.05
11621;BME280;5866;49.094;11.900;2023-06-14T06:28:24;95917.13;;;18.60;58.55
11621;BME280;5866;49.094;11.900;2023-06-14T06:30:52;95918.50;;;20.02;53.74
11621;BME280;5866;49.094;11.900;2023-06-14T06:33:21;95915.59;;;21.32;51.29
11621;BME280;5866;49.094;11.900;2023-06-14T06:35:49;95914.75;;;20.97;51.84
11621;BME280;5866;49.094;11.900;2023-06-14T06:38:17;95919.28;;;21.78;49.07
11621;BME280;5866;49.094;11.900;2023-06-14T06:40:45;95922.19;;;21.76;48.47
11621;BME280;5866;49.094;11.900;2023-06-14T06:43:13;95915.34;;;21.46;49.08
11621;BME280;5866;49.094;11.900;2023-06-14T06:45:43;95926.09;;;21.69;48.91
11621;BME280;5866;49.094;11.900;2023-06-14T06:48:10;95918.03;;;21.57;49.16
11621;BME280;5866;49.094;11.900;2023-06-14T06:50:39;95932.75;;;20.62;51.05
11621;BME280;5866;49.094;11.900;2023-06-14T06:53:07;95932.84;;;19.24;55.22
11621;BME280;5866;49.094;11.900;2023-06-14T06:55:34;95935.97;;;18.78;57.29
11621;BME280;5866;49.094;11.900;2023-06-14T06:58:02;95937.34;;;18.62;58.34
11621;BME280;5866;49.094;11.900;2023-06-14T07:00:31;95937.75;;;20.47;53.46
11621;BME280;5866;49.094;11.900;2023-06-14T07:02:59;95945.97;;;20.52;52.81
11621;BME280;5866;49.094;11.900;2023-06-14T07:05:26;95953.28;;;20.63;52.36
11621;BME280;5866;49.094;11.900;2023-06-14T07:07:55;95940.03;;;21.89;49.08
11621;BME280;5866;49.094;11.900;2023-06-14T07:10:23;95945.03;;;22.65;47.53
11621;BME280;5866;49.094;11.900;2023-06-14T07:12:52;95946.13;;;22.80;46.73
11621;BME280;5866;49.094;11.900;2023-06-14T07:15:19;95945.81;;;22.94;46.67
11621;BME280;5866;49.094;11.900;2023-06-14T07:17:47;95949.94;;;23.89;44.32
11621;BME280;5866;49.094;11.900;2023-06-14T07:20:14;95953.34;;;24.71;42.76
11621;BME280;5866;49.094;11.900;2023-06-14T07:22:43;95948.91;;;24.12;43.82
11621;BME280;5866;49.094;11.900;2023-06-14T07:25:12;95949.97;;;23.18;44.76
11621;BME280;5866;49.094;11.900;2023-06-14T07:27:42;95954.47;;;23.62;44.45
11621;BME280;5866;49.094;11.900;2023-06-14T07:30:11;95945.00;;;23.86;43.33
11621;BME280;5866;49.094;11.900;2023-06-14T07:32:39;95954.34;;;23.74;43.53
11621;BME280;5866;49.094;11.900;2023-06-14T07:35:07;95960.91;;;23.39;44.64
11621;BME280;5866;49.094;11.900;2023-06-14T07:37:35;95966.03;;;22.46;46.25
11621;BME280;5866;49.094;11.900;2023-06-14T07:40:03;95967.19;;;22.50;46.90
11621;BME280;5866;49.094;11.900;2023-06-14T07:42:35;95967.78;;;22.24;47.70
11621;BME280;5866;49.094;11.900;2023-06-14T07:45:03;95964.88;;;21.40;49.50
11621;BME280;5866;49.094;11.900;2023-06-14T07:47:31;95967.28;;;21.64;49.38
11621;BME280;5866;49.094;11.900;2023-06-14T07:49:59;95969.50;;;21.79;48.76
11621;BME280;5866;49.094;11.900;2023-06-14T07:52:27;95961.56;;;22.12;48.29
11621;BME280;5866;49.094;11.900;2023-06-14T07:54:54;95963.75;;;24.53;43.77
11621;BME280;5866;49.094;11.900;2023-06-14T07:57:23;95960.84;;;26.73;39.85
11621;BME280;5866;49.094;11.900;2023-06-14T07:59:51;95963.38;;;27.35;37.78
11621;BME280;5866;49.094;11.900;2023-06-14T08:02:19;95971.66;;;26.53;38.80
11621;BME280;5866;49.094;11.900;2023-06-14T08:04:47;95971.91;;;25.43;38.45
11621;BME280;5866;49.094;11.900;2023-06-14T08:07:15;95970.59;;;25.92;39.93
11621;BME280;5866;49.094;11.900;2023-06-14T08:09:42;95970.94;;;26.06;39.66
11621;BME280;5866;49.094;11.900;2023-06-14T08:12:10;95966.91;;;27.40;37.17
11621;BME280;5866;49.094;11.900;2023-06-14T08:14:39;95971.00;;;28.47;33.20
11621;BME280;5866;49.094;11.900;2023-06-14T08:17:08;95968.44;;;28.71;32.78
11621;BME280;5866;49.094;11.900;2023-06-14T08:19:36;95970.03;;;28.18;34.01
11621;BME280;5866;49.094;11.900;2023-06-14T08:22:04;95975.81;;;27.91;34.80
11621;BME280;5866;49.094;11.900;2023-06-14T08:24:32;95970.03;;;26.57;36.31
11621;BME280;5866;49.094;11.900;2023-06-14T08:26:59;95974.25;;;25.66;36.62
11621;BME280;5866;49.094;11.900;2023-06-14T08:29:28;95970.34;;;25.20;37.47
11621;BME280;5866;49.094;11.900;2023-06-14T08:31:57;95973.06;;;25.52;38.15
11621;BME280;5866;49.094;11.900;2023-06-14T08:34:26;95972.84;;;26.77;36.32
11621;BME280;5866;49.094;11.900;2023-06-14T08:36:53;95965.94;;;25.87;38.91
11621;BME280;5866;49.094;11.900;2023-06-14T08:39:21;95971.69;;;26.63;35.33
11621;BME280;5866;49.094;11.900;2023-06-14T08:41:49;95976.69;;;27.26;34.44
11621;BME280;5866;49.094;11.900;2023-06-14T08:44:19;95981.06;;;26.15;36.70
11621;BME280;5866;49.094;11.900;2023-06-14T08:46:47;95986.53;;;27.37;34.65
11621;BME280;5866;49.094;11.900;2023-06-14T08:49:16;95979.44;;;29.72;29.98
11621;BME280;5866;49.094;11.900;2023-06-14T08:51:46;95987.34;;;30.02;29.76
11621;BME280;5866;49.094;11.900;2023-06-14T08:54:18;95989.78;;;29.07;31.65
11621;BME280;5866;49.094;11.900;2023-06-14T08:56:47;95989.50;;;26.19;35.56
11621;BME280;5866;49.094;11.900;2023-06-14T08:59:15;95993.84;;;25.73;36.68
11621;BME280;5866;49.094;11.900;2023-06-14T09:01:44;95984.59;;;26.16;36.29
11621;BME280;5866;49.094;11.900;2023-06-14T09:04:34;95979.97;;;27.69;33.70
11621;BME280;5866;49.094;11.900;2023-06-14T09:07:04;95984.56;;;30.07;30.47
11621;BME280;5866;49.094;11.900;2023-06-14T09:09:32;95988.34;;;31.01;28.96
11621;BME280;5866;49.094;11.900;2023-06-14T09:12:00;95984.81;;;31.51;28.15
11621;BME280;5866;49.094;11.900;2023-06-14T09:14:28;95984.78;;;31.70;27.41
11621;BME280;5866;49.094;11.900;2023-06-14T09:16:55;95993.56;;;31.85;27.28
11621;BME280;5866;49.094;11.900;2023-06-14T09:19:24;95995.28;;;31.49;28.24
11621;BME280;5866;49.094;11.900;2023-06-14T09:21:52;95990.63;;;31.63;28.33
11621;BME280;5866;49.094;11.900;2023-06-14T09:24:23;95985.28;;;32.18;26.68
11621;BME280;5866;49.094;11.900;2023-06-14T09:26:51;95996.06;;;32.14;27.20
11621;BME280;5866;49.094;11.900;2023-06-14T09:29:19;95999.00;;;30.13;29.16
11621;BME280;5866;49.094;11.900;2023-06-14T09:31:47;95993.06;;;30.29;28.84
11621;BME280;5866;49.094;11.900;2023-06-14T09:34:16;95994.25;;;31.45;26.60
11621;BME280;5866;49.094;11.900;2023-06-14T09:36:44;95981.41;;;32.32;26.10
11621;BME280;5866;49.094;11.900;2023-06-14T09:39:16;95981.69;;;33.34;25.79
11621;BME280;5866;49.094;11.900;2023-06-14T09:41:46;95985.03;;;33.98;24.85
11621;BME280;5866;49.094;11.900;2023-06-14T09:44:13;95995.28;;;33.53;24.87
11621;BME280;5866;49.094;11.900;2023-06-14T09:46:48;95979.31;;;33.19;25.77
11621;BME280;5866;49.094;11.900;2023-06-14T09:49:15;95983.66;;;32.17;27.73
11621;BME280;5866;49.094;11.900;2023-06-14T09:51:45;95984.03;;;30.95;29.47
11621;BME280;5866;49.094;11.900;2023-06-14T09:54:15;95984.91;;;29.72;29.52
11621;BME280;5866;49.094;11.900;2023-06-14T09:56:46;95984.00;;;29.19;30.43
11621;BME280;5866;49.094;11.900;2023-06-14T09:59:19;95983.03;;;29.39;29.89
11621;BME280;5866;49.094;11.900;2023-06-14T10:01:55;95995.66;;;29.30;31.09
11621;BME280;5866;49.094;11.900;2023-06-14T10:04:25;95988.38;;;27.87;32.07
11621;BME280;5866;49.094;11.900;2023-06-14T10:06:54;95987.50;;;26.66;34.18
11621;BME280;5866;49.094;11.900;2023-06-14T10:09:22;95997.69;;;24.82;37.33
11621;BME280;5866;49.094;11.900;2023-06-14T10:11:52;95998.31;;;24.19;38.18
11621;BME280;5866;49.094;11.900;2023-06-14T10:14:19;96003.75;;;24.19;38.83
11621;BME280;5866;49.094;11.900;2023-06-14T10:16:52;95999.75;;;24.26;38.87
11621;BME280;5866;49.094;11.900;2023-06-14T10:19:25;95998.25;;;24.35;38.25
11621;BME280;5866;49.094;11.900;2023-06-14T10:22:02;95996.34;;;24.84;37.60
11621;BME280;5866;49.094;11.900;2023-06-14T10:24:37;96008.66;;;24.92;36.58
11621;BME280;5866;49.094;11.900;2023-06-14T10:27:08;95998.56;;;23.79;37.30
11621;BME280;5866;49.094;11.900;2023-06-14T10:30:01;95996.47;;;23.15;38.31
11621;BME280;5866;49.094;11.900;2023-06-14T10:32:31;96002.44;;;22.55;39.05
11621;BME280;5866;49.094;11.900;2023-06-14T10:35:00;96005.00;;;23.73;37.66
11621;BME280;5866;49.094;11.900;2023-06-14T10:37:28;95996.59;;;24.34;37.02
11621;BME280;5866;49.094;11.900;2023-06-14T10:39:56;95988.97;;;25.38;34.66
11621;BME280;5866;49.094;11.900;2023-06-14T10:42:27;95992.38;;;26.59;33.48
11621;BME280;5866;49.094;11.900;2023-06-14T10:44:56;95990.88;;;27.38;32.07
11621;BME280;5866;49.094;11.900;2023-06-14T10:47:27;96000.16;;;27.47;32.03
11621;BME280;5866;49.094;11.900;2023-06-14T10:49:56;95989.78;;;27.44;31.62
11621;BME280;5866;49.094;11.900;2023-06-14T10:52:26;95985.81;;;28.26;30.62
11621;BME280;5866;49.094;11.900;2023-06-14T10:55:06;95992.19;;;28.70;30.25
11621;BME280;5866;49.094;11.900;2023-06-14T10:57:37;95985.97;;;29.03;29.69
11621;BME280;5866;49.094;11.900;2023-06-14T11:00:18;95994.69;;;27.73;31.67
11621;BME280;5866;49.094;11.900;2023-06-14T11:05:51;95991.34;;;26.80;33.36
11621;BME280;5866;49.094;11.900;2023-06-14T11:08:45;95993.41;;;26.43;34.12
11621;BME280;5866;49.094;11.900;2023-06-14T11:11:21;95982.78;;;25.89;34.62
11621;BME280;5866;49.094;11.900;2023-06-14T11:13:51;95988.25;;;25.48;34.95
11621;BME280;5866;49.094;11.900;2023-06-14T11:16:26;95984.88;;;25.04;36.46
11621;BME280;5866;49.094;11.900;2023-06-14T11:18:54;95982.81;;;24.63;37.54
11621;BME280;5866;49.094;11.900;2023-06-14T11:21:22;95983.19;;;25.61;34.88
11621;BME280;5866;49.094;11.900;2023-06-14T11:23:52;95975.59;;;27.02;33.12
11621;BME280;5866;49.094;11.900;2023-06-14T11:26:25;95969.50;;;28.16;32.08
11621;BME280;5866;49.094;11.900;2023-06-14T11:28:59;95971.69;;;28.14;31.25
11621;BME280;5866;49.094;11.900;2023-06-14T11:31:27;95975.06;;;27.10;31.77
11621;BME280;5866;49.094;11.900;2023-06-14T11:33:57;95981.91;;;26.26;33.04
11621;BME280;5866;49.094;11.900;2023-06-14T11:36:26;95987.94;;;26.33;34.95
11621;BME280;5866;49.094;11.900;2023-06-14T11:38:59;95989.03;;;26.37;32.95
11621;BME280;5866;49.094;11.900;2023-06-14T11:41:32;95985.25;;;26.43;34.05
11621;BME280;5866;49.094;11.900;2023-06-14T11:44:02;95986.88;;;26.44;34.11
11621;BME280;5866;49.094;11.900;2023-06-14T11:46:30;95991.16;;;26.25;33.39
11621;BME280;5866;49.094;11.900;2023-06-14T11:48:57;95989.53;;;25.40;34.50
11621;BME280;5866;49.094;11.900;2023-06-14T11:51:25;95989.28;;;25.42;34.86
11621;BME280;5866;49.094;11.900;2023-06-14T11:53:53;95986.97;;;25.29;35.17
11621;BME280;5866;49.094;11.900;2023-06-14T11:56:22;95986.78;;;24.77;36.09
11621;BME280;5866;49.094;11.900;2023-06-14T11:58:49;95978.59;;;25.35;35.72
11621;BME280;5866;49.094;11.900;2023-06-14T12:01:18;95965.44;;;26.57;33.00
11621;BME280;5866;49.094;11.900;2023-06-14T12:03:48;95970.16;;;27.02;31.16
11621;BME280;5866;49.094;11.900;2023-06-14T12:06:16;95968.22;;;27.98;30.26
11621;BME280;5866;49.094;11.900;2023-06-14T12:08:55;95969.03;;;29.06;28.59
11621;BME280;5866;49.094;11.900;2023-06-14T12:11:23;95959.56;;;31.17;27.25
11621;BME280;5866;49.094;11.900;2023-06-14T12:13:51;95959.88;;;32.39;24.98
11621;BME280;5866;49.094;11.900;2023-06-14T12:16:20;95957.00;;;32.71;25.68
11621;BME280;5866;49.094;11.900;2023-06-14T12:18:48;95956.56;;;32.92;25.01
11621;BME280;5866;49.094;11.900;2023-06-14T12:21:15;95961.75;;;33.29;25.07
11621;BME280;5866;49.094;11.900;2023-06-14T12:23:44;95955.59;;;32.20;25.20
11621;BME280;5866;49.094;11.900;2023-06-14T12:26:13;95956.56;;;31.69;25.92
11621;BME280;5866;49.094;11.900;2023-06-14T12:28:41;95961.94;;;31.42;27.64
11621;BME280;5866;49.094;11.900;2023-06-14T12:31:11;95953.34;;;31.30;26.53
11621;BME280;5866;49.094;11.900;2023-06-14T12:33:41;95954.78;;;31.60;26.96
11621;BME280;5866;49.094;11.900;2023-06-14T12:36:10;95959.06;;;30.96;26.24
11621;BME280;5866;49.094;11.900;2023-06-14T12:38:38;95953.75;;;30.86;25.71
11621;BME280;5866;49.094;11.900;2023-06-14T12:41:05;95955.72;;;31.69;25.01
11621;BME280;5866;49.094;11.900;2023-06-14T12:43:34;95955.94;;;30.84;24.95
11621;BME280;5866;49.094;11.900;2023-06-14T12:46:01;95955.69;;;29.39;25.75
11621;BME280;5866;49.094;11.900;2023-06-14T12:48:29;95958.81;;;28.83;25.48
11621;BME280;5866;49.094;11.900;2023-06-14T12:50:58;95957.22;;;29.50;25.25
11621;BME280;5866;49.094;11.900;2023-06-14T12:53:26;95950.81;;;29.93;24.65
11621;BME280;5866;49.094;11.900;2023-06-14T12:55:54;95957.75;;;29.52;25.49
11621;BME280;5866;49.094;11.900;2023-06-14T12:58:21;95951.91;;;30.39;25.12
11621;BME280;5866;49.094;11.900;2023-06-14T13:00:50;95962.22;;;30.47;24.31
11621;BME280;5866;49.094;11.900;2023-06-14T13:03:18;95963.00;;;31.46;23.29
11621;BME280;5866;49.094;11.900;2023-06-14T13:05:45;95953.69;;;31.10;24.65
11621;BME280;5866;49.094;11.900;2023-06-14T13:08:14;95956.75;;;29.43;24.76
11621;BME280;5866;49.094;11.900;2023-06-14T13:10:42;95963.91;;;29.67;25.65
11621;BME280;5866;49.094;11.900;2023-06-14T13:13:09;95970.63;;;29.18;25.48